sensor_id;sensor_type;location;lat;lon;timestamp;temperature;humidity
13721;DHT22;6932;51.438;5.470;2023-12-20T00:01:35;12.10;99.90
13721;DHT22;6932;51.438;5.470;2023-12-20T00:04:02;12.00;99.90
13721;DHT22;6932;51.438;5.470;2023-12-20T00:06:28;12.00;99.90
13721;DHT22;6932;51.438;5.470;2023-12-20T00:08:53;12.00;99.90
13721;DHT22;6932;51.438;5.470;2023-12-20T00:11:19;11.90;99.90
13721;DHT22;6932;51.438;5.470;2023-12-20T00:13:45;11.90;99.90
13721;DHT22;6932;51.438;5.470;2023-12-20T00:16:10;11.90;99.90
13721;DHT22;6932;51.438;5.470;2023-12-20T00:18:36;11.80;99.90
13721;DHT22;6932;51.438;5.470;2023-12-20T00:21:02;11.80;99.90
13721;DHT22;6932;51.438;5.470;2023-12-20T00:23:28;11.70;99.90
13721;DHT22;6932;51.438;5.470;2023-12-20T00:25:54;11.70;99.90
13721;DHT22;6932;51.438;5.470;2023-12-20T00:28:19;11.70;99.90
13721;DHT22;6932;51.438;5.470;2023-12-20T00:30:45;11.70;99.90
13721;DHT22;6932;51.438;5.470;2023-12-20T00:33:11;11.60;99.90
13721;DHT22;6932;51.438;5.470;2023-12-20T00:35:37;11.60;99.90
13721;DHT22;6932;51.438;5.470;2023-12-20T00:38:02;11.60;99.90
13721;DHT22;6932;51.438;5.470;2023-12-20T00:40:30;11.50;99.90
13721;DHT22;6932;51.438;5.470;2023-12-20T00:42:56;11.50;99.90
13721;DHT22;6932;51.438;5.470;2023-12-20T00:45:21;11.50;99.90
13721;DHT22;6932;51.438;5.470;2023-12-20T00:47:47;11.50;99.90
13721;DHT22;6932;51.438;5.470;2023-12-20T00:50:13;11.50;99.90
13721;DHT22;6932;51.438;5.470;2023-12-20T00:52:38;11.50;99.90
13721;DHT22;6932;51.438;5.470;2023-12-20T00:55:04;11.50;99.90
13721;DHT22;6932;51.438;5.470;2023-12-20T00:57:31;11.40;99.90
13721;DHT22;6932;51.438;5.470;2023-12-20T00:59:56;11.40;99.90
13721;DHT22;6932;51.438;5.470;2023-12-20T01:02:22;11.40;99.90
13721;DHT22;6932;51.438;5.470;2023-12-20T01:04:48;11.40;99.90
13721;DHT22;6932;51.438;5.470;2023-12-20T01:07:13;11.30;99.90
13721;DHT22;6932;51.438;5.470;2023-12-20T01:09:39;11.30;99.90
13721;DHT22;6932;51.438;5.470;2023-12-20T01:12:05;11.30;99.90
13721;DHT22;6932;51.438;5.470;2023-12-20T01:14:31;11.30;99.90
13721;DHT22;6932;51.438;5.470;2023-12-20T01:16:56;11.30;99.90
13721;DHT22;6932;51.438;5.470;2023-12-20T01:19:22;11.30;99.90
13721;DHT22;6932;51.438;5.470;2023-12-20T01:21:49;11.30;99.90
13721;DHT22;6932;51.438;5.470;2023-12-20T01:24:15;11.30;99.90
13721;DHT22;6932;51.438;5.470;2023-12-20T01:26:40;11.20;99.90
13721;DHT22;6932;51.438;5.470;2023-12-20T01:29:06;11.30;99.90
13721;DHT22;6932;51.438;5.470;2023-12-20T01:31:31;11.20;99.90
13721;DHT22;6932;51.438;5.470;2023-12-20T01:33:57;11.20;99.90
13721;DHT22;6932;51.438;5.470;2023-12-20T01:36:23;11.20;99.90
13721;DHT22;6932;51.438;5.470;2023-12-20T01:38:48;11.20;99.90
13721;DHT22;6932;51.438;5.470;2023-12-20T01:41:14;11.20;99.90
13721;DHT22;6932;51.438;5.470;2023-12-20T01:43:40;11.20;99.90
13721;DHT22;6932;51.438;5.470;2023-12-20T01:46:06;11.20;99.90
13721;DHT22;6932;51.438;5.470;2023-12-20T01:48:32;11.20;99.90
13721;DHT22;6932;51.438;5.470;2023-12-20T01:50:59;11.20;99.90
13721;DHT22;6932;51.438;5.470;2023-12-20T01:53:26;11.20;99.90
13721;DHT22;6932;51.438;5.470;2023-12-20T01:55:54;11.20;99.90
13721;DHT22;6932;51.438;5.470;2023-12-20T01:58:22;11.20;99.90
13721;DHT22;6932;51.438;5.470;2023-12-20T02:00:49;11.20;99.90
13721;DHT22;6932;51.438;5.470;2023-12-20T02:03:16;11.20;99.90
13721;DHT22;6932;51.438;5.470;2023-12-20T02:05:42;11.20;99.90
13721;DHT22;6932;51.438;5.470;2023-12-20T02:08:09;11.20;99.90
13721;DHT22;6932;51.438;5.470;2023-12-20T02:10:35;11.20;99.90
13721;DHT22;6932;51.438;5.470;2023-12-20T02:13:01;11.20;99.90
13721;DHT22;6932;51.438;5.470;2023-12-20T02:15:26;11.20;99.90
13721;DHT22;6932;51.438;5.470;2023-12-20T02:17:52;11.20;99.90
13721;DHT22;6932;51.438;5.470;2023-12-20T02:20:18;11.20;99.90
13721;DHT22;6932;51.438;5.470;2023-12-20T02:22:44;11.20;99.90
13721;DHT22;6932;51.438;5.470;2023-12-20T02:25:10;11.20;99.90
13721;DHT22;6932;51.438;5.470;2023-12-20T02:27:36;11.20;99.90
13721;DHT22;6932;51.438;5.470;2023-12-20T02:30:02;11.20;99.90
13721;DHT22;6932;51.438;5.470;2023-12-20T02:32:29;11.20;99.90
13721;DHT22;6932;51.438;5.470;2023-12-20T02:34:55;11.20;99.90
13721;DHT22;6932;51.438;5.470;2023-12-20T02:37:21;11.20;99.90
13721;DHT22;6932;51.438;5.470;2023-12-20T02:39:46;11.20;99.90
13721;DHT22;6932;51.438;5.470;2023-12-20T02:42:12;11.30;99.90
13721;DHT22;6932;51.438;5.470;2023-12-20T02:44:38;11.20;99.90
13721;DHT22;6932;51.438;5.470;2023-12-20T02:47:04;11.20;99.90
13721;DHT22;6932;51.438;5.470;2023-12-20T02:49:30;11.20;99.90
13721;DHT22;6932;51.438;5.470;2023-12-20T02:51:56;11.20;99.90
13721;DHT22;6932;51.438;5.470;2023-12-20T02:54:21;11.20;99.90
13721;DHT22;6932;51.438;5.470;2023-12-20T02:56:47;11.20;99.90
13721;DHT22;6932;51.438;5.470;2023-12-20T02:59:13;11.20;99.90
13721;DHT22;6932;51.438;5.470;2023-12-20T03:01:43;11.30;99.90
13721;DHT22;6932;51.438;5.470;2023-12-20T03:04:10;11.20;99.90
13721;DHT22;6932;51.438;5.470;2023-12-20T03:06:37;11.20;99.90
13721;DHT22;6932;51.438;5.470;2023-12-20T03:09:03;11.20;99.90
13721;DHT22;6932;51.438;5.470;2023-12-20T03:11:29;11.20;99.90
13721;DHT22;6932;51.438;5.470;2023-12-20T03:13:56;11.20;99.90
13721;DHT22;6932;51.438;5.470;2023-12-20T03:16:22;11.20;99.90
13721;DHT22;6932;51.438;5.470;2023-12-20T03:18:48;11.20;99.90
13721;DHT22;6932;51.438;5.470;2023-12-20T03:21:14;11.20;99.90
13721;DHT22;6932;51.438;5.470;2023-12-20T03:23:40;11.20;99.90
13721;DHT22;6932;51.438;5.470;2023-12-20T03:26:09;11.20;99.90
13721;DHT22;6932;51.438;5.470;2023-12-20T03:28:36;11.10;99.90
13721;DHT22;6932;51.438;5.470;2023-12-20T03:31:02;11.20;99.90
13721;DHT22;6932;51.438;5.470;2023-12-20T03:33:28;11.10;99.90
13721;DHT22;6932;51.438;5.470;2023-12-20T03:35:55;11.10;99.90
13721;DHT22;6932;51.438;5.470;2023-12-20T03:38:21;11.10;99.90
13721;DHT22;6932;51.438;5.470;2023-12-20T03:40:49;11.10;99.90
13721;DHT22;6932;51.438;5.470;2023-12-20T03:43:15;11.10;99.90
13721;DHT22;6932;51.438;5.470;2023-12-20T03:45:42;11.10;99.90
13721;DHT22;6932;51.438;5.470;2023-12-20T03:48:08;11.10;99.90
13721;DHT22;6932;51.438;5.470;2023-12-20T03:50:35;11.10;99.90
13721;DHT22;6932;51.438;5.470;2023-12-20T03:53:01;11.10;99.90
13721;DHT22;6932;51.438;5.470;2023-12-20T03:55:27;11.10;99.90
13721;DHT22;6932;51.438;5.470;2023-12-20T03:57:52;11.10;99.90
13721;DHT22;6932;51.438;5.470;2023-12-20T04:00:18;11.10;99.90
13721;DHT22;6932;51.438;5.470;2023-12-20T04:02:45;11.10;99.90
13721;DHT22;6932;51.438;5.470;2023-12-20T04:05:10;11.20;99.90
13721;DHT22;6932;51.438;5.470;2023-12-20T04:07:36;11.20;99.90
13721;DHT22;6932;51.438;5.470;2023-12-20T04:10:03;11.20;99.90
13721;DHT22;6932;51.438;5.470;2023-12-20T04:12:32;11.20;99.90
13721;DHT22;6932;51.438;5.470;2023-12-20T04:14:58;11.20;99.90
13721;DHT22;6932;51.438;5.470;2023-12-20T04:17:23;11.20;99.90
13721;DHT22;6932;51.438;5.470;2023-12-20T04:19:50;11.20;99.90
13721;DHT22;6932;51.438;5.470;2023-12-20T04:22:17;11.20;99.90
13721;DHT22;6932;51.438;5.470;2023-12-20T04:24:44;11.20;99.90
13721;DHT22;6932;51.438;5.470;2023-12-20T04:27:10;11.20;99.90
13721;DHT22;6932;51.438;5.470;2023-12-20T04:29:36;11.30;99.90
13721;DHT22;6932;51.438;5.470;2023-12-20T04:32:02;11.30;99.90
13721;DHT22;6932;51.438;5.470;2023-12-20T04:34:28;11.30;99.90
13721;DHT22;6932;51.438;5.470;2023-12-20T04:36:54;11.30;99.90
13721;DHT22;6932;51.438;5.470;2023-12-20T04:39:19;11.30;99.90
13721;DHT22;6932;51.438;5.470;2023-12-20T04:41:45;11.30;99.90
13721;DHT22;6932;51.438;5.470;2023-12-20T04:44:13;11.30;99.90
13721;DHT22;6932;51.438;5.470;2023-12-20T04:46:39;11.30;99.90
13721;DHT22;6932;51.438;5.470;2023-12-20T04:49:05;11.30;99.90
13721;DHT22;6932;51.438;5.470;2023-12-20T04:51:33;11.30;99.90
13721;DHT22;6932;51.438;5.470;2023-12-20T04:54:00;11.30;99.90
13721;DHT22;6932;51.438;5.470;2023-12-20T04:56:26;11.40;99.90
13721;DHT22;6932;51.438;5.470;2023-12-20T04:58:51;11.30;99.90
13721;DHT22;6932;51.438;5.470;2023-12-20T05:01:17;11.40;99.90
13721;DHT22;6932;51.438;5.470;2023-12-20T05:03:43;11.40;99.90
13721;DHT22;6932;51.438;5.470;2023-12-20T05:06:10;11.40;99.90
13721;DHT22;6932;51.438;5.470;2023-12-20T05:08:36;11.40;99.90
13721;DHT22;6932;51.438;5.470;2023-12-20T05:11:02;11.40;99.90
13721;DHT22;6932;51.438;5.470;2023-12-20T05:13:28;11.40;99.90
13721;DHT22;6932;51.438;5.470;2023-12-20T05:15:54;11.40;99.90
13721;DHT22;6932;51.438;5.470;2023-12-20T05:18:21;11.40;99.90
13721;DHT22;6932;51.438;5.470;2023-12-20T05:20:47;11.50;99.90
13721;DHT22;6932;51.438;5.470;2023-12-20T05:23:12;11.40;99.90
13721;DHT22;6932;51.438;5.470;2023-12-20T05:25:38;11.40;99.90
13721;DHT22;6932;51.438;5.470;2023-12-20T05:28:04;11.40;99.90
13721;DHT22;6932;51.438;5.470;2023-12-20T05:30:30;11.40;99.90
13721;DHT22;6932;51.438;5.470;2023-12-20T05:32:56;11.40;99.90
13721;DHT22;6932;51.438;5.470;2023-12-20T05:35:22;11.40;99.90
13721;DHT22;6932;51.438;5.470;2023-12-20T05:37:49;11.40;99.90
13721;DHT22;6932;51.438;5.470;2023-12-20T05:40:15;11.50;99.90
13721;DHT22;6932;51.438;5.470;2023-12-20T05:42:41;11.50;99.90
13721;DHT22;6932;51.438;5.470;2023-12-20T05:45:07;11.50;99.90
13721;DHT22;6932;51.438;5.470;2023-12-20T05:47:33;11.50;99.90
13721;DHT22;6932;51.438;5.470;2023-12-20T05:49:58;11.50;99.90
13721;DHT22;6932;51.438;5.470;2023-12-20T05:52:24;11.50;99.90
13721;DHT22;6932;51.438;5.470;2023-12-20T05:54:50;11.50;99.90
13721;DHT22;6932;51.438;5.470;2023-12-20T05:57:16;11.50;99.90
13721;DHT22;6932;51.438;5.470;2023-12-20T05:59:42;11.50;99.90
13721;DHT22;6932;51.438;5.470;2023-12-20T06:02:07;11.50;99.90
13721;DHT22;6932;51.438;5.470;2023-12-20T06:04:33;11.50;99.90
13721;DHT22;6932;51.438;5.470;2023-12-20T06:06:59;11.50;99.90
13721;DHT22;6932;51.438;5.470;2023-12-20T06:09:26;11.50;99.90
13721;DHT22;6932;51.438;5.470;2023-12-20T06:11:52;11.50;99.90
13721;DHT22;6932;51.438;5.470;2023-12-20T06:14:19;11.50;99.90
13721;DHT22;6932;51.438;5.470;2023-12-20T06:16:45;11.50;99.90
13721;DHT22;6932;51.438;5.470;2023-12-20T06:19:11;11.50;99.90
13721;DHT22;6932;51.438;5.470;2023-12-20T06:21:37;11.50;99.90
13721;DHT22;6932;51.438;5.470;2023-12-20T06:24:03;11.50;99.90
13721;DHT22;6932;51.438;5.470;2023-12-20T06:26:29;11.50;99.90
13721;DHT22;6932;51.438;5.470;2023-12-20T06:28:55;11.50;99.90
13721;DHT22;6932;51.438;5.470;2023-12-20T06:31:21;11.40;99.90
13721;DHT22;6932;51.438;5.470;2023-12-20T06:33:46;11.40;99.90
13721;DHT22;6932;51.438;5.470;2023-12-20T06:36:13;11.40;99.90
13721;DHT22;6932;51.438;5.470;2023-12-20T06:38:39;11.40;99.90
13721;DHT22;6932;51.438;5.470;2023-12-20T06:41:05;11.30;99.90
13721;DHT22;6932;51.438;5.470;2023-12-20T06:43:33;11.30;99.90
13721;DHT22;6932;51.438;5.470;2023-12-20T06:46:02;11.30;99.90
13721;DHT22;6932;51.438;5.470;2023-12-20T06:48:28;11.30;99.90
13721;DHT22;6932;51.438;5.470;2023-12-20T06:50:54;11.30;99.90
13721;DHT22;6932;51.438;5.470;2023-12-20T06:53:19;11.20;99.90
13721;DHT22;6932;51.438;5.470;2023-12-20T06:55:45;11.20;99.90
13721;DHT22;6932;51.438;5.470;2023-12-20T06:58:11;11.20;99.90
13721;DHT22;6932;51.438;5.470;2023-12-20T07:00:37;11.30;99.90
13721;DHT22;6932;51.438;5.470;2023-12-20T07:03:03;11.20;99.90
13721;DHT22;6932;51.438;5.470;2023-12-20T07:05:29;11.20;99.90
13721;DHT22;6932;51.438;5.470;2023-12-20T07:07:55;11.20;99.90
13721;DHT22;6932;51.438;5.470;2023-12-20T07:10:20;11.20;99.90
13721;DHT22;6932;51.438;5.470;2023-12-20T07:12:46;11.20;99.90
13721;DHT22;6932;51.438;5.470;2023-12-20T07:15:14;11.20;99.90
13721;DHT22;6932;51.438;5.470;2023-12-20T07:17:39;11.20;99.90
13721;DHT22;6932;51.438;5.470;2023-12-20T07:20:06;11.20;99.90
13721;DHT22;6932;51.438;5.470;2023-12-20T07:22:35;11.20;99.90
13721;DHT22;6932;51.438;5.470;2023-12-20T07:25:00;11.20;99.90
13721;DHT22;6932;51.438;5.470;2023-12-20T07:27:26;11.20;99.90
13721;DHT22;6932;51.438;5.470;2023-12-20T07:29:53;11.20;99.90
13721;DHT22;6932;51.438;5.470;2023-12-20T07:32:18;11.20;99.90
13721;DHT22;6932;51.438;5.470;2023-12-20T07:34:44;11.30;99.90
13721;DHT22;6932;51.438;5.470;2023-12-20T07:37:10;11.20;99.90
13721;DHT22;6932;51.438;5.470;2023-12-20T07:39:38;11.20;99.90
13721;DHT22;6932;51.438;5.470;2023-12-20T07:42:05;11.20;99.90
13721;DHT22;6932;51.438;5.470;2023-12-20T07:44:32;11.20;99.90
13721;DHT22;6932;51.438;5.470;2023-12-20T07:46:58;11.20;99.90
13721;DHT22;6932;51.438;5.470;2023-12-20T07:49:23;11.20;99.90
13721;DHT22;6932;51.438;5.470;2023-12-20T07:51:49;11.20;99.90
13721;DHT22;6932;51.438;5.470;2023-12-20T07:54:15;11.20;99.90
13721;DHT22;6932;51.438;5.470;2023-12-20T07:56:42;11.30;99.90
13721;DHT22;6932;51.438;5.470;2023-12-20T07:59:07;11.30;99.90
13721;DHT22;6932;51.438;5.470;2023-12-20T08:01:33;11.30;99.90
13721;DHT22;6932;51.438;5.470;2023-12-20T08:03:59;11.30;99.90
13721;DHT22;6932;51.438;5.470;2023-12-20T08:06:25;11.30;99.90
13721;DHT22;6932;51.438;5.470;2023-12-20T08:08:50;11.30;99.90
13721;DHT22;6932;51.438;5.470;2023-12-20T08:11:16;11.40;99.90
13721;DHT22;6932;51.438;5.470;2023-12-20T08:13:42;11.40;99.90
13721;DHT22;6932;51.438;5.470;2023-12-20T08:16:08;11.40;99.90
13721;DHT22;6932;51.438;5.470;2023-12-20T08:18:34;11.40;99.90
13721;DHT22;6932;51.438;5.470;2023-12-20T08:21:00;11.40;99.90
13721;DHT22;6932;51.438;5.470;2023-12-20T08:23:26;11.40;99.90
13721;DHT22;6932;51.438;5.470;2023-12-20T08:25:52;11.40;99.90
13721;DHT22;6932;51.438;5.470;2023-12-20T08:28:18;11.50;99.90
13721;DHT22;6932;51.438;5.470;2023-12-20T08:30:44;11.40;99.90
13721;DHT22;6932;51.438;5.470;2023-12-20T08:33:10;11.40;99.90
13721;DHT22;6932;51.438;5.470;2023-12-20T08:35:38;11.50;99.90
13721;DHT22;6932;51.438;5.470;2023-12-20T08:38:05;11.50;99.90
13721;DHT22;6932;51.438;5.470;2023-12-20T08:40:31;11.50;99.90
13721;DHT22;6932;51.438;5.470;2023-12-20T08:42:57;11.50;99.90
13721;DHT22;6932;51.438;5.470;2023-12-20T08:45:23;11.50;99.90
13721;DHT22;6932;51.438;5.470;2023-12-20T08:47:50;11.50;99.90
13721;DHT22;6932;51.438;5.470;2023-12-20T08:50:16;11.70;99.90
13721;DHT22;6932;51.438;5.470;2023-12-20T08:52:41;11.60;99.90
13721;DHT22;6932;51.438;5.470;2023-12-20T08:55:07;11.60;99.90
13721;DHT22;6932;51.438;5.470;2023-12-20T08:57:35;11.60;99.90
13721;DHT22;6932;51.438;5.470;2023-12-20T09:00:00;11.70;99.90
13721;DHT22;6932;51.438;5.470;2023-12-20T09:02:26;11.70;99.90
13721;DHT22;6932;51.438;5.470;2023-12-20T09:04:52;11.70;99.90
13721;DHT22;6932;51.438;5.470;2023-12-20T09:07:25;11.80;99.90
13721;DHT22;6932;51.438;5.470;2023-12-20T09:09:52;11.80;99.90
13721;DHT22;6932;51.438;5.470;2023-12-20T09:12:19;11.80;99.90
13721;DHT22;6932;51.438;5.470;2023-12-20T09:14:49;11.90;99.90
13721;DHT22;6932;51.438;5.470;2023-12-20T09:17:17;11.90;99.90
13721;DHT22;6932;51.438;5.470;2023-12-20T09:19:44;11.90;99.90
13721;DHT22;6932;51.438;5.470;2023-12-20T09:22:10;11.90;99.90
13721;DHT22;6932;51.438;5.470;2023-12-20T09:24:36;11.90;99.90
13721;DHT22;6932;51.438;5.470;2023-12-20T09:27:03;11.90;99.90
13721;DHT22;6932;51.438;5.470;2023-12-20T09:29:29;11.90;99.90
13721;DHT22;6932;51.438;5.470;2023-12-20T09:31:55;11.90;99.90
13721;DHT22;6932;51.438;5.470;2023-12-20T09:34:21;11.90;99.90
13721;DHT22;6932;51.438;5.470;2023-12-20T09:36:47;11.90;99.90
13721;DHT22;6932;51.438;5.470;2023-12-20T09:39:14;12.00;99.90
13721;DHT22;6932;51.438;5.470;2023-12-20T09:41:44;11.90;99.90
13721;DHT22;6932;51.438;5.470;2023-12-20T09:44:16;12.00;99.90
13721;DHT22;6932;51.438;5.470;2023-12-20T09:46:45;11.90;99.90
13721;DHT22;6932;51.438;5.470;2023-12-20T09:49:17;11.90;99.90
13721;DHT22;6932;51.438;5.470;2023-12-20T09:51:44;11.90;99.90
13721;DHT22;6932;51.438;5.470;2023-12-20T09:54:15;11.90;99.90
13721;DHT22;6932;51.438;5.470;2023-12-20T09:56:42;11.90;99.90
13721;DHT22;6932;51.438;5.470;2023-12-20T09:59:08;11.90;99.90
13721;DHT22;6932;51.438;5.470;2023-12-20T10:01:35;11.90;99.90
13721;DHT22;6932;51.438;5.470;2023-12-20T10:04:07;11.90;99.90
13721;DHT22;6932;51.438;5.470;2023-12-20T10:06:44;11.90;99.90
13721;DHT22;6932;51.438;5.470;2023-12-20T10:09:11;11.90;99.90
13721;DHT22;6932;51.438;5.470;2023-12-20T10:11:38;11.90;99.90
13721;DHT22;6932;51.438;5.470;2023-12-20T10:14:05;11.90;99.90
13721;DHT22;6932;51.438;5.470;2023-12-20T10:16:32;11.90;99.90
13721;DHT22;6932;51.438;5.470;2023-12-20T10:19:00;11.90;99.90
13721;DHT22;6932;51.438;5.470;2023-12-20T10:21:29;11.90;99.90
13721;DHT22;6932;51.438;5.470;2023-12-20T10:23:56;11.90;99.90
13721;DHT22;6932;51.438;5.470;2023-12-20T10:26:23;11.90;99.90
13721;DHT22;6932;51.438;5.470;2023-12-20T10:28:53;11.90;99.90
13721;DHT22;6932;51.438;5.470;2023-12-20T10:31:30;12.00;99.90
13721;DHT22;6932;51.438;5.470;2023-12-20T10:33:58;11.90;99.90
13721;DHT22;6932;51.438;5.470;2023-12-20T10:36:27;11.90;99.90
13721;DHT22;6932;51.438;5.470;2023-12-20T10:38:56;11.90;99.90
13721;DHT22;6932;51.438;5.470;2023-12-20T10:41:32;11.90;99.90
13721;DHT22;6932;51.438;5.470;2023-12-20T10:44:04;11.90;99.90
13721;DHT22;6932;51.438;5.470;2023-12-20T10:46:31;11.90;99.90
13721;DHT22;6932;51.438;5.470;2023-12-20T10:49:02;11.90;99.90
13721;DHT22;6932;51.438;5.470;2023-12-20T10:51:28;11.90;99.90
13721;DHT22;6932;51.438;5.470;2023-12-20T10:53:56;12.00;99.90
13721;DHT22;6932;51.438;5.470;2023-12-20T10:56:22;11.90;99.90
13721;DHT22;6932;51.438;5.470;2023-12-20T10:58:51;12.00;99.90
13721;DHT22;6932;51.438;5.470;2023-12-20T11:01:18;12.00;99.90
13721;DHT22;6932;51.438;5.470;2023-12-20T11:03:49;12.00;99.90
13721;DHT22;6932;51.438;5.470;2023-12-20T11:09:24;12.00;99.90
13721;DHT22;6932;51.438;5.470;2023-12-20T11:12:10;12.10;99.90
13721;DHT22;6932;51.438;5.470;2023-12-20T11:14:48;12.10;99.90
13721;DHT22;6932;51.438;5.470;2023-12-20T11:17:17;12.10;99.90
13721;DHT22;6932;51.438;5.470;2023-12-20T11:20:04;12.10;99.90
13721;DHT22;6932;51.438;5.470;2023-12-20T11:22:32;12.10;99.90
13721;DHT22;6932;51.438;5.470;2023-12-20T11:25:09;12.20;99.90
13721;DHT22;6932;51.438;5.470;2023-12-20T11:27:40;12.20;99.90
13721;DHT22;6932;51.438;5.470;2023-12-20T11:30:07;12.20;99.90
13721;DHT22;6932;51.438;5.470;2023-12-20T11:32:36;12.20;99.90
13721;DHT22;6932;51.438;5.470;2023-12-20T11:37:38;12.20;99.90
13721;DHT22;6932;51.438;5.470;2023-12-20T11:40:11;12.20;99.90
13721;DHT22;6932;51.438;5.470;2023-12-20T11:42:41;12.20;99.90
13721;DHT22;6932;51.438;5.470;2023-12-20T11:45:13;12.20;99.90
13721;DHT22;6932;51.438;5.470;2023-12-20T11:47:45;12.20;99.90
13721;DHT22;6932;51.438;5.470;2023-12-20T11:50:12;12.20;99.90
13721;DHT22;6932;51.438;5.470;2023-12-20T11:52:38;12.20;99.90
13721;DHT22;6932;51.438;5.470;2023-12-20T11:55:04;12.20;99.90
13721;DHT22;6932;51.438;5.470;2023-12-20T11:57:32;12.20;99.90
13721;DHT22;6932;51.438;5.470;2023-12-20T11:59:58;12.10;99.90
13721;DHT22;6932;51.438;5.470;2023-12-20T12:02:24;12.10;99.90
13721;DHT22;6932;51.438;5.470;2023-12-20T12:04:50;12.20;99.90
13721;DHT22;6932;51.438;5.470;2023-12-20T12:07:16;12.10;99.90
13721;DHT22;6932;51.438;5.470;2023-12-20T12:09:43;12.10;99.90
13721;DHT22;6932;51.438;5.470;2023-12-20T12:12:10;12.10;99.90
13721;DHT22;6932;51.438;5.470;2023-12-20T12:14:38;12.10;99.90
13721;DHT22;6932;51.438;5.470;2023-12-20T12:17:13;12.10;99.90
13721;DHT22;6932;51.438;5.470;2023-12-20T12:19:41;12.10;99.90
13721;DHT22;6932;51.438;5.470;2023-12-20T12:22:14;12.10;99.90
13721;DHT22;6932;51.438;5.470;2023-12-20T12:24:45;12.10;99.90
13721;DHT22;6932;51.438;5.470;2023-12-20T12:27:15;12.10;99.90
13721;DHT22;6932;51.438;5.470;2023-12-20T12:29:42;12.10;99.90
13721;DHT22;6932;51.438;5.470;2023-12-20T12:32:26;12.10;99.90
13721;DHT22;6932;51.438;5.470;2023-12-20T12:34:52;12.10;99.90
13721;DHT22;6932;51.438;5.470;2023-12-20T12:37:18;12.10;99.90
13721;DHT22;6932;51.438;5.470;2023-12-20T12:39:44;12.10;99.90
13721;DHT22;6932;51.438;5.470;2023-12-20T12:42:12;12.10;99.90
13721;DHT22;6932;51.438;5.470;2023-12-20T12:44:37;12.10;99.90
13721;DHT22;6932;51.438;5.470;2023-12-20T12:47:03;12.10;99.90
13721;DHT22;6932;51.438;5.470;2023-12-20T12:49:29;12.10;99.90
13721;DHT22;6932;51.438;5.470;2023-12-20T12:51:54;12.10;99.90
13721;DHT22;6932;51.438;5.470;2023-12-20T12:54:23;12.10;99.90
13721;DHT22;6932;51.438;5.470;2023-12-20T12:56:50;12.10;99.90
13721;DHT22;6932;51.438;5.470;2023-12-20T12:59:16;12.20;99.90
13721;DHT22;6932;51.438;5.470;2023-12-20T13:01:42;12.20;99.90
13721;DHT22;6932;51.438;5.470;2023-12-20T13:04:08;12.20;99.90
13721;DHT22;6932;51.438;5.470;2023-12-20T13:06:38;12.20;99.90
13721;DHT22;6932;51.438;5.470;2023-12-20T13:09:06;12.20;99.90
13721;DHT22;6932;51.438;5.470;2023-12-20T13:11:32;12.20;99.90
13721;DHT22;6932;51.438;5.470;2023-12-20T13:13:58;12.20;99.90
13721;DHT22;6932;51.438;5.470;2023-12-20T13:16:24;12.30;99.90
13721;DHT22;6932;51.438;5.470;2023-12-20T13:18:50;12.30;99.90
13721;DHT22;6932;51.438;5.470;2023-12-20T13:21:16;12.30;99.90
13721;DHT22;6932;51.438;5.470;2023-12-20T13:23:42;12.30;99.90
13721;DHT22;6932;51.438;5.470;2023-12-20T13:26:08;12.30;99.90
13721;DHT22;6932;51.438;5.470;2023-12-20T13:28:34;12.40;99.90
13721;DHT22;6932;51.438;5.470;2023-12-20T13:30:59;12.40;99.90
13721;DHT22;6932;51.438;5.470;2023-12-20T13:33:25;12.40;99.90
13721;DHT22;6932;51.438;5.470;2023-12-20T13:35:51;12.40;99.90
13721;DHT22;6932;51.438;5.470;2023-12-20T13:38:17;12.40;99.90
13721;DHT22;6932;51.438;5.470;2023-12-20T13:40:43;12.50;99.90
13721;DHT22;6932;51.438;5.470;2023-12-20T13:43:09;12.50;99.90
13721;DHT22;6932;51.438;5.470;2023-12-20T13:45:37;12.50;99.90
13721;DHT22;6932;51.438;5.470;2023-12-20T13:48:03;12.50;99.90
13721;DHT22;6932;51.438;5.470;2023-12-20T13:50:29;12.50;99.90
13721;DHT22;6932;51.438;5.470;2023-12-20T13:52:55;12.50;99.90
13721;DHT22;6932;51.438;5.470;2023-12-20T13:55:21;12.50;99.90
13721;DHT22;6932;51.438;5.470;2023-12-20T13:57:51;12.50;99.90
13721;DHT22;6932;51.438;5.470;2023-12-20T14:00:17;12.50;99.90
13721;DHT22;6932;51.438;5.470;2023-12-20T14:02:42;12.50;99.90
13721;DHT22;6932;51.438;5.470;2023-12-20T14:05:09;12.50;99.90
13721;DHT22;6932;51.438;5.470;2023-12-20T14:07:36;12.50;99.90
13721;DHT22;6932;51.438;5.470;2023-12-20T14:10:02;12.50;99.90
13721;DHT22;6932;51.438;5.470;2023-12-20T14:12:28;12.50;99.90
13721;DHT22;6932;51.438;5.470;2023-12-20T14:14:54;12.50;99.90
13721;DHT22;6932;51.438;5.470;2023-12-20T14:17:21;12.50;99.90
13721;DHT22;6932;51.438;5.470;2023-12-20T14:19:47;12.50;99.90
13721;DHT22;6932;51.438;5.470;2023-12-20T14:22:13;12.60;99.90
13721;DHT22;6932;51.438;5.470;2023-12-20T14:24:42;12.50;99.90
13721;DHT22;6932;51.438;5.470;2023-12-20T14:27:08;12.50;99.90
13721;DHT22;6932;51.438;5.470;2023-12-20T14:29:35;12.50;99.90
13721;DHT22;6932;51.438;5.470;2023-12-20T14:32:01;12.50;99.90
13721;DHT22;6932;51.438;5.470;2023-12-20T14:34:28;12.60;99.90
13721;DHT22;6932;51.438;5.470;2023-12-20T14:36:54;12.50;99.90
13721;DHT22;6932;51.438;5.470;2023-12-20T14:39:21;12.60;99.90
13721;DHT22;6932;51.438;5.470;2023-12-20T14:41:47;12.60;99.90
13721;DHT22;6932;51.438;5.470;2023-12-20T14:44:12;12.60;99.90
13721;DHT22;6932;51.438;5.470;2023-12-20T14:46:38;12.60;99.90
13721;DHT22;6932;51.438;5.470;2023-12-20T14:49:05;12.60;99.90
13721;DHT22;6932;51.438;5.470;2023-12-20T14:51:31;12.60;99.90
13721;DHT22;6932;51.438;5.470;2023-12-20T14:53:56;12.60;99.90
13721;DHT22;6932;51.438;5.470;2023-12-20T14:56:24;12.60;99.90
13721;DHT22;6932;51.438;5.470;2023-12-20T14:58:51;12.60;99.90
13721;DHT22;6932;51.438;5.470;2023-12-20T15:01:17;12.60;99.90
13721;DHT22;6932;51.438;5.470;2023-12-20T15:03:47;12.60;99.90
13721;DHT22;6932;51.438;5.470;2023-12-20T15:06:13;12.60;99.90
13721;DHT22;6932;51.438;5.470;2023-12-20T15:08:39;12.70;99.90
13721;DHT22;6932;51.438;5.470;2023-12-20T15:11:04;12.60;99.90
13721;DHT22;6932;51.438;5.470;2023-12-20T15:13:31;12.70;99.90
13721;DHT22;6932;51.438;5.470;2023-12-20T15:15:57;12.70;99.90
13721;DHT22;6932;51.438;5.470;2023-12-20T15:18:22;12.70;99.90
13721;DHT22;6932;51.438;5.470;2023-12-20T15:20:48;12.70;99.90
13721;DHT22;6932;51.438;5.470;2023-12-20T15:23:14;12.70;99.90
13721;DHT22;6932;51.438;5.470;2023-12-20T15:25:40;12.70;99.90
13721;DHT22;6932;51.438;5.470;2023-12-20T15:28:06;12.70;99.90
13721;DHT22;6932;51.438;5.470;2023-12-20T15:30:32;12.70;99.90
13721;DHT22;6932;51.438;5.470;2023-12-20T15:32:58;12.70;99.90
13721;DHT22;6932;51.438;5.470;2023-12-20T15:35:24;12.70;99.90
13721;DHT22;6932;51.438;5.470;2023-12-20T15:37:50;12.70;99.90
13721;DHT22;6932;51.438;5.470;2023-12-20T15:40:16;12.70;99.90
13721;DHT22;6932;51.438;5.470;2023-12-20T15:42:42;12.70;99.90
13721;DHT22;6932;51.438;5.470;2023-12-20T15:45:09;12.80;99.90
13721;DHT22;6932;51.438;5.470;2023-12-20T15:47:35;12.70;99.90